sensor_id;sensor_type;location;lat;lon;timestamp;pressure;altitude;pressure_sealevel;temperature;humidity
49645;BME280;36494;50.730;-1.932;2023-02-04T00:01:00;103187.19;;;8.86;100.00
49645;BME280;36494;50.730;-1.932;2023-02-04T00:03:26;103191.37;;;8.83;100.00
49645;BME280;36494;50.730;-1.932;2023-02-04T00:05:51;103190.50;;;8.80;100.00
49645;BME280;36494;50.730;-1.932;2023-02-04T00:08:16;103190.00;;;8.80;100.00
49645;BME280;36494;50.730;-1.932;2023-02-04T00:10:42;103191.03;;;8.81;100.00
49645;BME280;36494;50.730;-1.932;2023-02-04T00:13:07;103187.37;;;8.78;100.00
49645;BME280;36494;50.730;-1.932;2023-02-04T00:15:32;103189.09;;;8.77;100.00
49645;BME280;36494;50.730;-1.932;2023-02-04T00:17:58;103190.67;;;8.77;100.00
49645;BME280;36494;50.730;-1.932;2023-02-04T00:20:23;103192.82;;;8.74;100.00
49645;BME280;36494;50.730;-1.932;2023-02-04T00:22:48;103195.12;;;8.68;100.00
49645;BME280;36494;50.730;-1.932;2023-02-04T00:25:14;103195.91;;;8.63;100.00
49645;BME280;36494;50.730;-1.932;2023-02-04T00:27:39;103196.29;;;8.66;100.00
49645;BME280;36494;50.730;-1.932;2023-02-04T00:30:06;103194.92;;;8.64;100.00
49645;BME280;36494;50.730;-1.932;2023-02-04T00:32:30;103192.66;;;8.66;100.00
49645;BME280;36494;50.730;-1.932;2023-02-04T00:34:55;103191.68;;;8.67;100.00
49645;BME280;36494;50.730;-1.932;2023-02-04T00:37:21;103187.19;;;8.65;100.00
49645;BME280;36494;50.730;-1.932;2023-02-04T00:39:46;103182.97;;;8.67;100.00
49645;BME280;36494;50.730;-1.932;2023-02-04T00:42:11;103184.69;;;8.66;100.00
49645;BME280;36494;50.730;-1.932;2023-02-04T00:44:37;103182.12;;;8.65;100.00
49645;BME280;36494;50.730;-1.932;2023-02-04T00:47:02;103180.45;;;8.65;100.00
49645;BME280;36494;50.730;-1.932;2023-02-04T00:49:28;103184.64;;;8.64;100.00
49645;BME280;36494;50.730;-1.932;2023-02-04T00:51:53;103188.12;;;8.63;100.00
49645;BME280;36494;50.730;-1.932;2023-02-04T00:54:18;103185.74;;;8.64;100.00
49645;BME280;36494;50.730;-1.932;2023-02-04T00:56:44;103179.02;;;8.64;100.00
49645;BME280;36494;50.730;-1.932;2023-02-04T00:59:09;103179.75;;;8.62;100.00
49645;BME280;36494;50.730;-1.932;2023-02-04T01:01:35;103181.84;;;8.62;100.00
49645;BME280;36494;50.730;-1.932;2023-02-04T01:04:00;103183.66;;;8.61;100.00
49645;BME280;36494;50.730;-1.932;2023-02-04T01:06:25;103185.53;;;8.62;100.00
49645;BME280;36494;50.730;-1.932;2023-02-04T01:08:51;103187.81;;;8.62;100.00
49645;BME280;36494;50.730;-1.932;2023-02-04T01:11:16;103185.99;;;8.62;100.00
49645;BME280;36494;50.730;-1.932;2023-02-04T01:13:42;103188.72;;;8.62;100.00
49645;BME280;36494;50.730;-1.932;2023-02-04T01:16:07;103189.56;;;8.62;100.00
49645;BME280;36494;50.730;-1.932;2023-02-04T01:18:32;103192.25;;;8.62;100.00
49645;BME280;36494;50.730;-1.932;2023-02-04T01:20:57;103190.58;;;8.62;100.00
49645;BME280;36494;50.730;-1.932;2023-02-04T01:23:23;103190.03;;;8.64;100.00
49645;BME280;36494;50.730;-1.932;2023-02-04T01:25:48;103192.59;;;8.63;100.00
49645;BME280;36494;50.730;-1.932;2023-02-04T01:28:14;103197.36;;;8.63;100.00
49645;BME280;36494;50.730;-1.932;2023-02-04T01:30:39;103197.26;;;8.61;100.00
49645;BME280;36494;50.730;-1.932;2023-02-04T01:33:04;103196.57;;;8.63;100.00
49645;BME280;36494;50.730;-1.932;2023-02-04T01:35:30;103200.51;;;8.63;100.00
49645;BME280;36494;50.730;-1.932;2023-02-04T01:37:55;103202.47;;;8.63;100.00
49645;BME280;36494;50.730;-1.932;2023-02-04T01:40:20;103204.38;;;8.63;100.00
49645;BME280;36494;50.730;-1.932;2023-02-04T01:42:46;103205.73;;;8.63;100.00
49645;BME280;36494;50.730;-1.932;2023-02-04T01:45:12;103208.42;;;8.63;100.00
49645;BME280;36494;50.730;-1.932;2023-02-04T01:47:37;103208.92;;;8.62;100.00
49645;BME280;36494;50.730;-1.932;2023-02-04T01:50:02;103206.92;;;8.65;100.00
49645;BME280;36494;50.730;-1.932;2023-02-04T01:52:32;103203.65;;;8.65;100.00
49645;BME280;36494;50.730;-1.932;2023-02-04T01:54:53;103202.79;;;8.65;100.00
49645;BME280;36494;50.730;-1.932;2023-02-04T01:57:18;103202.11;;;8.64;100.00
49645;BME280;36494;50.730;-1.932;2023-02-04T01:59:45;103203.45;;;8.63;100.00
49645;BME280;36494;50.730;-1.932;2023-02-04T02:04:34;103211.58;;;8.62;100.00
49645;BME280;36494;50.730;-1.932;2023-02-04T02:07:02;103214.52;;;8.60;100.00
49645;BME280;36494;50.730;-1.932;2023-02-04T02:09:25;103216.42;;;8.57;100.00
49645;BME280;36494;50.730;-1.932;2023-02-04T02:11:50;103214.81;;;8.56;100.00
49645;BME280;36494;50.730;-1.932;2023-02-04T02:14:16;103212.17;;;8.55;100.00
49645;BME280;36494;50.730;-1.932;2023-02-04T02:16:41;103212.79;;;8.53;100.00
49645;BME280;36494;50.730;-1.932;2023-02-04T02:19:09;103212.23;;;8.53;100.00
49645;BME280;36494;50.730;-1.932;2023-02-04T02:21:37;103214.87;;;8.52;100.00
49645;BME280;36494;50.730;-1.932;2023-02-04T02:23:57;103215.60;;;8.52;100.00
49645;BME280;36494;50.730;-1.932;2023-02-04T02:26:23;103213.46;;;8.51;100.00
49645;BME280;36494;50.730;-1.932;2023-02-04T02:28:48;103213.50;;;8.51;100.00
49645;BME280;36494;50.730;-1.932;2023-02-04T02:31:14;103211.56;;;8.52;100.00
49645;BME280;36494;50.730;-1.932;2023-02-04T02:33:38;103211.27;;;8.52;100.00
49645;BME280;36494;50.730;-1.932;2023-02-04T02:36:04;103208.04;;;8.49;100.00
49645;BME280;36494;50.730;-1.932;2023-02-04T02:38:29;103208.69;;;8.51;100.00
49645;BME280;36494;50.730;-1.932;2023-02-04T02:40:55;103210.32;;;8.50;100.00
49645;BME280;36494;50.730;-1.932;2023-02-04T02:43:21;103210.55;;;8.49;100.00
49645;BME280;36494;50.730;-1.932;2023-02-04T02:45:45;103212.82;;;8.49;100.00
49645;BME280;36494;50.730;-1.932;2023-02-04T02:48:11;103212.35;;;8.50;100.00
49645;BME280;36494;50.730;-1.932;2023-02-04T02:50:36;103209.51;;;8.49;100.00
49645;BME280;36494;50.730;-1.932;2023-02-04T02:53:01;103209.72;;;8.49;100.00
49645;BME280;36494;50.730;-1.932;2023-02-04T02:55:27;103209.48;;;8.50;100.00
49645;BME280;36494;50.730;-1.932;2023-02-04T02:57:54;103209.40;;;8.49;100.00
49645;BME280;36494;50.730;-1.932;2023-02-04T03:00:20;103209.43;;;8.49;100.00
49645;BME280;36494;50.730;-1.932;2023-02-04T03:02:44;103214.32;;;8.49;100.00
49645;BME280;36494;50.730;-1.932;2023-02-04T03:05:09;103218.52;;;8.48;100.00
49645;BME280;36494;50.730;-1.932;2023-02-04T03:07:34;103216.55;;;8.49;100.00
49645;BME280;36494;50.730;-1.932;2023-02-04T03:09:59;103215.31;;;8.48;100.00
49645;BME280;36494;50.730;-1.932;2023-02-04T03:12:24;103215.62;;;8.46;100.00
49645;BME280;36494;50.730;-1.932;2023-02-04T03:14:50;103217.64;;;8.48;100.00
49645;BME280;36494;50.730;-1.932;2023-02-04T03:17:15;103218.48;;;8.46;100.00
49645;BME280;36494;50.730;-1.932;2023-02-04T03:19:41;103219.33;;;8.48;100.00
49645;BME280;36494;50.730;-1.932;2023-02-04T03:22:06;103218.61;;;8.47;100.00
49645;BME280;36494;50.730;-1.932;2023-02-04T03:24:32;103218.32;;;8.47;100.00
49645;BME280;36494;50.730;-1.932;2023-02-04T03:26:58;103213.80;;;8.48;100.00
49645;BME280;36494;50.730;-1.932;2023-02-04T03:29:23;103212.86;;;8.50;100.00
49645;BME280;36494;50.730;-1.932;2023-02-04T03:31:48;103209.55;;;8.51;100.00
49645;BME280;36494;50.730;-1.932;2023-02-04T03:34:14;103210.93;;;8.51;100.00
49645;BME280;36494;50.730;-1.932;2023-02-04T03:36:39;103212.49;;;8.51;100.00
49645;BME280;36494;50.730;-1.932;2023-02-04T03:39:04;103210.64;;;8.50;100.00
49645;BME280;36494;50.730;-1.932;2023-02-04T03:41:30;103206.28;;;8.50;100.00
49645;BME280;36494;50.730;-1.932;2023-02-04T03:43:55;103209.79;;;8.53;100.00
49645;BME280;36494;50.730;-1.932;2023-02-04T03:46:20;103208.08;;;8.53;100.00
49645;BME280;36494;50.730;-1.932;2023-02-04T03:48:45;103208.15;;;8.54;100.00
49645;BME280;36494;50.730;-1.932;2023-02-04T03:51:11;103211.69;;;8.54;100.00
49645;BME280;36494;50.730;-1.932;2023-02-04T03:53:36;103211.53;;;8.54;100.00
49645;BME280;36494;50.730;-1.932;2023-02-04T03:56:02;103214.15;;;8.54;100.00
49645;BME280;36494;50.730;-1.932;2023-02-04T03:58:27;103214.22;;;8.54;100.00
49645;BME280;36494;50.730;-1.932;2023-02-04T04:00:52;103216.77;;;8.53;100.00
49645;BME280;36494;50.730;-1.932;2023-02-04T04:03:18;103218.67;;;8.53;100.00
49645;BME280;36494;50.730;-1.932;2023-02-04T04:05:43;103219.73;;;8.53;100.00
49645;BME280;36494;50.730;-1.932;2023-02-04T04:08:09;103219.74;;;8.54;100.00
49645;BME280;36494;50.730;-1.932;2023-02-04T04:10:34;103218.22;;;8.52;100.00
49645;BME280;36494;50.730;-1.932;2023-02-04T04:12:59;103219.04;;;8.52;100.00
49645;BME280;36494;50.730;-1.932;2023-02-04T04:15:25;103226.98;;;8.53;100.00
49645;BME280;36494;50.730;-1.932;2023-02-04T04:17:50;103231.43;;;8.53;100.00
49645;BME280;36494;50.730;-1.932;2023-02-04T04:20:16;103234.33;;;8.54;100.00
49645;BME280;36494;50.730;-1.932;2023-02-04T04:22:41;103233.89;;;8.56;100.00
49645;BME280;36494;50.730;-1.932;2023-02-04T04:25:07;103235.69;;;8.55;100.00
49645;BME280;36494;50.730;-1.932;2023-02-04T04:27:31;103236.31;;;8.55;100.00
49645;BME280;36494;50.730;-1.932;2023-02-04T04:29:57;103236.71;;;8.52;100.00
49645;BME280;36494;50.730;-1.932;2023-02-04T04:32:22;103237.40;;;8.52;100.00
49645;BME280;36494;50.730;-1.932;2023-02-04T04:34:48;103238.51;;;8.51;100.00
49645;BME280;36494;50.730;-1.932;2023-02-04T04:37:13;103237.12;;;8.52;100.00
49645;BME280;36494;50.730;-1.932;2023-02-04T04:39:38;103235.75;;;8.50;100.00
49645;BME280;36494;50.730;-1.932;2023-02-04T04:42:04;103231.42;;;8.50;100.00
49645;BME280;36494;50.730;-1.932;2023-02-04T04:44:29;103229.92;;;8.51;100.00
49645;BME280;36494;50.730;-1.932;2023-02-04T04:46:54;103228.85;;;8.49;100.00
49645;BME280;36494;50.730;-1.932;2023-02-04T04:49:20;103228.17;;;8.48;100.00
49645;BME280;36494;50.730;-1.932;2023-02-04T04:51:45;103232.45;;;8.47;100.00
49645;BME280;36494;50.730;-1.932;2023-02-04T04:54:11;103234.73;;;8.45;100.00
49645;BME280;36494;50.730;-1.932;2023-02-04T04:56:36;103237.42;;;8.46;100.00
49645;BME280;36494;50.730;-1.932;2023-02-04T04:59:01;103238.66;;;8.46;100.00
49645;BME280;36494;50.730;-1.932;2023-02-04T05:01:27;103233.75;;;8.45;100.00
49645;BME280;36494;50.730;-1.932;2023-02-04T05:03:52;103233.36;;;8.43;100.00
49645;BME280;36494;50.730;-1.932;2023-02-04T05:06:17;103232.99;;;8.44;100.00
49645;BME280;36494;50.730;-1.932;2023-02-04T05:08:43;103232.00;;;8.42;100.00
49645;BME280;36494;50.730;-1.932;2023-02-04T05:11:08;103232.66;;;8.40;100.00
49645;BME280;36494;50.730;-1.932;2023-02-04T05:13:33;103231.12;;;8.42;100.00
49645;BME280;36494;50.730;-1.932;2023-02-04T05:15:59;103229.62;;;8.41;100.00
49645;BME280;36494;50.730;-1.932;2023-02-04T05:18:24;103229.25;;;8.41;100.00
49645;BME280;36494;50.730;-1.932;2023-02-04T05:20:49;103231.90;;;8.41;100.00
49645;BME280;36494;50.730;-1.932;2023-02-04T05:23:15;103230.73;;;8.40;100.00
49645;BME280;36494;50.730;-1.932;2023-02-04T05:25:40;103230.33;;;8.41;100.00
49645;BME280;36494;50.730;-1.932;2023-02-04T05:28:05;103230.62;;;8.40;100.00
49645;BME280;36494;50.730;-1.932;2023-02-04T05:30:31;103229.63;;;8.42;100.00
49645;BME280;36494;50.730;-1.932;2023-02-04T05:32:56;103229.29;;;8.42;100.00
49645;BME280;36494;50.730;-1.932;2023-02-04T05:35:21;103231.18;;;8.42;100.00
49645;BME280;36494;50.730;-1.932;2023-02-04T05:37:47;103229.45;;;8.41;100.00
49645;BME280;36494;50.730;-1.932;2023-02-04T05:40:12;103230.77;;;8.40;100.00
49645;BME280;36494;50.730;-1.932;2023-02-04T05:42:38;103229.26;;;8.41;100.00
49645;BME280;36494;50.730;-1.932;2023-02-04T05:45:03;103229.28;;;8.39;100.00
49645;BME280;36494;50.730;-1.932;2023-02-04T05:47:28;103229.37;;;8.40;100.00
49645;BME280;36494;50.730;-1.932;2023-02-04T05:49:54;103229.66;;;8.37;100.00
49645;BME280;36494;50.730;-1.932;2023-02-04T05:52:19;103235.06;;;8.40;100.00
49645;BME280;36494;50.730;-1.932;2023-02-04T05:54:44;103235.00;;;8.40;100.00
49645;BME280;36494;50.730;-1.932;2023-02-04T05:57:10;103238.78;;;8.40;100.00
49645;BME280;36494;50.730;-1.932;2023-02-04T05:59:35;103238.06;;;8.41;100.00
49645;BME280;36494;50.730;-1.932;2023-02-04T06:02:00;103238.53;;;8.41;100.00
49645;BME280;36494;50.730;-1.932;2023-02-04T06:04:26;103238.07;;;8.41;100.00
49645;BME280;36494;50.730;-1.932;2023-02-04T06:06:51;103238.43;;;8.40;100.00
49645;BME280;36494;50.730;-1.932;2023-02-04T06:09:16;103245.31;;;8.38;100.00
49645;BME280;36494;50.730;-1.932;2023-02-04T06:11:42;103247.08;;;8.39;100.00
49645;BME280;36494;50.730;-1.932;2023-02-04T06:14:07;103245.17;;;8.37;100.00
49645;BME280;36494;50.730;-1.932;2023-02-04T06:16:33;103241.36;;;8.36;100.00
49645;BME280;36494;50.730;-1.932;2023-02-04T06:18:58;103241.93;;;8.37;100.00
49645;BME280;36494;50.730;-1.932;2023-02-04T06:21:23;103242.89;;;8.37;100.00
49645;BME280;36494;50.730;-1.932;2023-02-04T06:23:49;103243.85;;;8.38;100.00
49645;BME280;36494;50.730;-1.932;2023-02-04T06:26:14;103246.68;;;8.37;100.00
49645;BME280;36494;50.730;-1.932;2023-02-04T06:28:39;103248.60;;;8.35;100.00
49645;BME280;36494;50.730;-1.932;2023-02-04T06:31:05;103249.96;;;8.34;100.00
49645;BME280;36494;50.730;-1.932;2023-02-04T06:33:30;103251.99;;;8.34;100.00
49645;BME280;36494;50.730;-1.932;2023-02-04T06:35:55;103254.30;;;8.33;100.00
49645;BME280;36494;50.730;-1.932;2023-02-04T06:38:21;103257.46;;;8.34;100.00
49645;BME280;36494;50.730;-1.932;2023-02-04T06:40:46;103258.83;;;8.33;100.00
49645;BME280;36494;50.730;-1.932;2023-02-04T06:43:12;103264.85;;;8.34;100.00
49645;BME280;36494;50.730;-1.932;2023-02-04T06:45:37;103264.33;;;8.33;100.00
49645;BME280;36494;50.730;-1.932;2023-02-04T06:48:03;103266.91;;;8.30;100.00
49645;BME280;36494;50.730;-1.932;2023-02-04T06:50:28;103270.26;;;8.29;100.00
49645;BME280;36494;50.730;-1.932;2023-02-04T06:52:53;103272.79;;;8.28;100.00
49645;BME280;36494;50.730;-1.932;2023-02-04T06:55:18;103275.48;;;8.31;100.00
49645;BME280;36494;50.730;-1.932;2023-02-04T06:57:44;103271.30;;;8.30;100.00
49645;BME280;36494;50.730;-1.932;2023-02-04T07:00:11;103270.72;;;8.29;100.00
49645;BME280;36494;50.730;-1.932;2023-02-04T07:02:35;103269.94;;;8.29;100.00
49645;BME280;36494;50.730;-1.932;2023-02-04T07:05:00;103269.73;;;8.29;100.00
49645;BME280;36494;50.730;-1.932;2023-02-04T07:07:25;103273.30;;;8.27;100.00
49645;BME280;36494;50.730;-1.932;2023-02-04T07:09:51;103278.01;;;8.25;100.00
49645;BME280;36494;50.730;-1.932;2023-02-04T07:12:17;103276.66;;;8.24;100.00
49645;BME280;36494;50.730;-1.932;2023-02-04T07:14:41;103275.28;;;8.22;100.00
49645;BME280;36494;50.730;-1.932;2023-02-04T07:17:07;103276.18;;;8.22;100.00
49645;BME280;36494;50.730;-1.932;2023-02-04T07:19:32;103277.94;;;8.21;100.00
49645;BME280;36494;50.730;-1.932;2023-02-04T07:21:57;103277.42;;;8.21;100.00
49645;BME280;36494;50.730;-1.932;2023-02-04T07:24:23;103279.01;;;8.20;100.00
49645;BME280;36494;50.730;-1.932;2023-02-04T07:26:48;103281.12;;;8.21;100.00
49645;BME280;36494;50.730;-1.932;2023-02-04T07:29:13;103280.73;;;8.20;100.00
49645;BME280;36494;50.730;-1.932;2023-02-04T07:31:39;103277.23;;;8.20;100.00
49645;BME280;36494;50.730;-1.932;2023-02-04T07:34:04;103279.22;;;8.19;100.00
49645;BME280;36494;50.730;-1.932;2023-02-04T07:36:30;103279.50;;;8.18;100.00
49645;BME280;36494;50.730;-1.932;2023-02-04T07:38:55;103281.13;;;8.18;100.00
49645;BME280;36494;50.730;-1.932;2023-02-04T07:41:20;103280.84;;;8.19;100.00
49645;BME280;36494;50.730;-1.932;2023-02-04T07:43:45;103283.61;;;8.19;100.00
49645;BME280;36494;50.730;-1.932;2023-02-04T07:46:11;103282.70;;;8.17;100.00
49645;BME280;36494;50.730;-1.932;2023-02-04T07:48:36;103285.35;;;8.16;100.00
49645;BME280;36494;50.730;-1.932;2023-02-04T07:51:01;103284.83;;;8.17;100.00
49645;BME280;36494;50.730;-1.932;2023-02-04T07:53:27;103288.81;;;8.17;100.00
49645;BME280;36494;50.730;-1.932;2023-02-04T07:55:52;103289.33;;;8.17;100.00
49645;BME280;36494;50.730;-1.932;2023-02-04T07:58:17;103293.57;;;8.17;100.00
49645;BME280;36494;50.730;-1.932;2023-02-04T08:00:43;103295.99;;;8.14;100.00
49645;BME280;36494;50.730;-1.932;2023-02-04T08:03:08;103300.37;;;8.16;100.00
49645;BME280;36494;50.730;-1.932;2023-02-04T08:05:33;103301.64;;;8.15;100.00
49645;BME280;36494;50.730;-1.932;2023-02-04T08:07:59;103305.39;;;8.15;100.00
49645;BME280;36494;50.730;-1.932;2023-02-04T08:10:24;103306.97;;;8.14;100.00
49645;BME280;36494;50.730;-1.932;2023-02-04T08:12:50;103311.33;;;8.16;100.00
49645;BME280;36494;50.730;-1.932;2023-02-04T08:15:15;103311.52;;;8.16;100.00
49645;BME280;36494;50.730;-1.932;2023-02-04T08:17:40;103312.26;;;8.17;100.00
49645;BME280;36494;50.730;-1.932;2023-02-04T08:20:06;103315.76;;;8.16;100.00
49645;BME280;36494;50.730;-1.932;2023-02-04T08:22:31;103321.96;;;8.15;100.00
49645;BME280;36494;50.730;-1.932;2023-02-04T08:24:56;103322.01;;;8.18;100.00
49645;BME280;36494;50.730;-1.932;2023-02-04T08:27:22;103324.94;;;8.17;100.00
49645;BME280;36494;50.730;-1.932;2023-02-04T08:29:47;103328.03;;;8.17;100.00
49645;BME280;36494;50.730;-1.932;2023-02-04T08:32:13;103329.55;;;8.18;100.00
49645;BME280;36494;50.730;-1.932;2023-02-04T08:34:38;103325.56;;;8.18;100.00
49645;BME280;36494;50.730;-1.932;2023-02-04T08:37:03;103326.82;;;8.21;100.00
49645;BME280;36494;50.730;-1.932;2023-02-04T08:39:28;103327.24;;;8.20;100.00
49645;BME280;36494;50.730;-1.932;2023-02-04T08:41:54;103330.06;;;8.21;100.00
49645;BME280;36494;50.730;-1.932;2023-02-04T08:44:19;103335.30;;;8.22;100.00
49645;BME280;36494;50.730;-1.932;2023-02-04T08:46:44;103338.64;;;8.22;100.00
49645;BME280;36494;50.730;-1.932;2023-02-04T08:49:10;103343.84;;;8.21;100.00
49645;BME280;36494;50.730;-1.932;2023-02-04T08:51:35;103344.91;;;8.21;100.00
49645;BME280;36494;50.730;-1.932;2023-02-04T08:54:01;103349.31;;;8.21;100.00
49645;BME280;36494;50.730;-1.932;2023-02-04T08:56:26;103350.19;;;8.20;100.00
49645;BME280;36494;50.730;-1.932;2023-02-04T08:58:51;103351.90;;;8.19;100.00
49645;BME280;36494;50.730;-1.932;2023-02-04T09:01:17;103352.95;;;8.19;100.00
49645;BME280;36494;50.730;-1.932;2023-02-04T09:03:42;103354.29;;;8.21;100.00
49645;BME280;36494;50.730;-1.932;2023-02-04T09:06:07;103357.16;;;8.19;100.00
49645;BME280;36494;50.730;-1.932;2023-02-04T09:08:33;103359.21;;;8.17;100.00
49645;BME280;36494;50.730;-1.932;2023-02-04T09:10:58;103362.65;;;8.22;100.00
49645;BME280;36494;50.730;-1.932;2023-02-04T09:13:24;103363.81;;;8.22;100.00
49645;BME280;36494;50.730;-1.932;2023-02-04T09:15:49;103362.94;;;8.22;100.00
49645;BME280;36494;50.730;-1.932;2023-02-04T09:18:14;103361.19;;;8.22;100.00
49645;BME280;36494;50.730;-1.932;2023-02-04T09:20:40;103360.89;;;8.23;100.00
49645;BME280;36494;50.730;-1.932;2023-02-04T09:23:05;103361.53;;;8.27;100.00
49645;BME280;36494;50.730;-1.932;2023-02-04T09:25:30;103361.51;;;8.26;100.00
49645;BME280;36494;50.730;-1.932;2023-02-04T09:27:56;103357.64;;;8.28;100.00
49645;BME280;36494;50.730;-1.932;2023-02-04T09:30:21;103358.45;;;8.26;100.00
49645;BME280;36494;50.730;-1.932;2023-02-04T09:32:46;103367.60;;;8.29;100.00
49645;BME280;36494;50.730;-1.932;2023-02-04T09:35:12;103374.03;;;8.31;100.00
49645;BME280;36494;50.730;-1.932;2023-02-04T09:37:37;103376.68;;;8.34;100.00
49645;BME280;36494;50.730;-1.932;2023-02-04T09:40:03;103377.17;;;8.34;100.00
49645;BME280;36494;50.730;-1.932;2023-02-04T09:42:28;103379.19;;;8.35;100.00
49645;BME280;36494;50.730;-1.932;2023-02-04T09:44:53;103382.77;;;8.33;100.00
49645;BME280;36494;50.730;-1.932;2023-02-04T09:47:21;103384.92;;;8.37;100.00
49645;BME280;36494;50.730;-1.932;2023-02-04T09:49:44;103386.98;;;8.40;100.00
49645;BME280;36494;50.730;-1.932;2023-02-04T09:52:10;103390.75;;;8.41;100.00
49645;BME280;36494;50.730;-1.932;2023-02-04T09:54:35;103391.09;;;8.39;100.00
49645;BME280;36494;50.730;-1.932;2023-02-04T09:57:00;103396.48;;;8.40;100.00
49645;BME280;36494;50.730;-1.932;2023-02-04T09:59:26;103395.95;;;8.40;100.00
49645;BME280;36494;50.730;-1.932;2023-02-04T10:01:54;103399.21;;;8.45;100.00
49645;BME280;36494;50.730;-1.932;2023-02-04T10:04:21;103397.90;;;8.47;100.00
49645;BME280;36494;50.730;-1.932;2023-02-04T10:06:42;103398.79;;;8.46;100.00
49645;BME280;36494;50.730;-1.932;2023-02-04T10:09:08;103394.87;;;8.48;100.00
49645;BME280;36494;50.730;-1.932;2023-02-04T10:11:35;103391.41;;;8.47;100.00
49645;BME280;36494;50.730;-1.932;2023-02-04T10:13:57;103394.94;;;8.49;100.00
49645;BME280;36494;50.730;-1.932;2023-02-04T10:16:25;103399.77;;;8.50;100.00
49645;BME280;36494;50.730;-1.932;2023-02-04T10:18:49;103400.72;;;8.54;100.00
49645;BME280;36494;50.730;-1.932;2023-02-04T10:21:16;103399.77;;;8.53;100.00
49645;BME280;36494;50.730;-1.932;2023-02-04T10:23:40;103408.39;;;8.54;100.00
49645;BME280;36494;50.730;-1.932;2023-02-04T10:26:04;103412.98;;;8.56;100.00
49645;BME280;36494;50.730;-1.932;2023-02-04T10:28:33;103413.20;;;8.57;100.00
49645;BME280;36494;50.730;-1.932;2023-02-04T10:30:55;103406.92;;;8.59;100.00
49645;BME280;36494;50.730;-1.932;2023-02-04T10:33:22;103406.10;;;8.60;100.00
49645;BME280;36494;50.730;-1.932;2023-02-04T10:35:47;103404.08;;;8.62;100.00
49645;BME280;36494;50.730;-1.932;2023-02-04T10:38:11;103404.96;;;8.66;100.00
49645;BME280;36494;50.730;-1.932;2023-02-04T10:40:36;103407.11;;;8.65;100.00
49645;BME280;36494;50.730;-1.932;2023-02-04T10:43:07;103408.62;;;8.63;100.00
49645;BME280;36494;50.730;-1.932;2023-02-04T10:45:28;103408.62;;;8.68;100.00
49645;BME280;36494;50.730;-1.932;2023-02-04T10:47:53;103411.68;;;8.64;100.00
49645;BME280;36494;50.730;-1.932;2023-02-04T10:50:20;103414.35;;;8.66;100.00
49645;BME280;36494;50.730;-1.932;2023-02-04T10:52:46;103415.08;;;8.72;100.00
49645;BME280;36494;50.730;-1.932;2023-02-04T10:55:15;103417.13;;;8.69;100.00
49645;BME280;36494;50.730;-1.932;2023-02-04T10:57:37;103419.19;;;8.71;100.00
49645;BME280;36494;50.730;-1.932;2023-02-04T11:00:01;103417.28;;;8.72;100.00
49645;BME280;36494;50.730;-1.932;2023-02-04T11:02:33;103415.67;;;8.77;100.00
49645;BME280;36494;50.730;-1.932;2023-02-04T11:04:49;103415.25;;;8.76;100.00
49645;BME280;36494;50.730;-1.932;2023-02-04T11:07:14;103413.81;;;8.79;100.00
49645;BME280;36494;50.730;-1.932;2023-02-04T11:09:40;103416.32;;;8.74;100.00
49645;BME280;36494;50.730;-1.932;2023-02-04T11:14:30;103419.39;;;8.81;100.00
49645;BME280;36494;50.730;-1.932;2023-02-04T11:16:57;103418.66;;;8.84;100.00
49645;BME280;36494;50.730;-1.932;2023-02-04T11:19:31;103423.29;;;8.83;100.00
49645;BME280;36494;50.730;-1.932;2023-02-04T11:21:47;103427.35;;;8.84;100.00
49645;BME280;36494;50.730;-1.932;2023-02-04T11:24:22;103430.07;;;8.89;100.00
49645;BME280;36494;50.730;-1.932;2023-02-04T11:26:38;103426.40;;;8.92;100.00
49645;BME280;36494;50.730;-1.932;2023-02-04T11:29:24;103420.80;;;8.93;100.00
49645;BME280;36494;50.730;-1.932;2023-02-04T11:31:41;103415.79;;;8.93;100.00
49645;BME280;36494;50.730;-1.932;2023-02-04T11:34:09;103412.93;;;8.96;100.00
49645;BME280;36494;50.730;-1.932;2023-02-04T11:36:19;103412.55;;;8.94;100.00
49645;BME280;36494;50.730;-1.932;2023-02-04T11:38:46;103411.00;;;8.99;100.00
49645;BME280;36494;50.730;-1.932;2023-02-04T11:41:14;103410.11;;;9.02;100.00
49645;BME280;36494;50.730;-1.932;2023-02-04T11:43:34;103406.36;;;9.01;100.00
49645;BME280;36494;50.730;-1.932;2023-02-04T11:46:02;103408.30;;;9.03;100.00
49645;BME280;36494;50.730;-1.932;2023-02-04T11:48:25;103409.42;;;9.06;100.00
49645;BME280;36494;50.730;-1.932;2023-02-04T11:50:55;103412.99;;;9.07;100.00
49645;BME280;36494;50.730;-1.932;2023-02-04T11:53:16;103413.87;;;9.08;100.00
49645;BME280;36494;50.730;-1.932;2023-02-04T11:55:44;103409.58;;;9.10;100.00
49645;BME280;36494;50.730;-1.932;2023-02-04T11:58:13;103407.35;;;9.15;100.00
49645;BME280;36494;50.730;-1.932;2023-02-04T12:00:32;103409.14;;;9.11;100.00
49645;BME280;36494;50.730;-1.932;2023-02-04T12:02:59;103406.22;;;9.10;100.00
49645;BME280;36494;50.730;-1.932;2023-02-04T12:05:34;103403.79;;;9.10;100.00
49645;BME280;36494;50.730;-1.932;2023-02-04T12:07:48;103403.85;;;9.15;100.00
49645;BME280;36494;50.730;-1.932;2023-02-04T12:10:22;103400.81;;;9.18;100.00
49645;BME280;36494;50.730;-1.932;2023-02-04T12:12:42;103401.70;;;9.20;100.00
49645;BME280;36494;50.730;-1.932;2023-02-04T12:15:14;103403.92;;;9.22;100.00
49645;BME280;36494;50.730;-1.932;2023-02-04T12:17:29;103404.16;;;9.19;100.00
49645;BME280;36494;50.730;-1.932;2023-02-04T12:19:55;103403.81;;;9.26;100.00
49645;BME280;36494;50.730;-1.932;2023-02-04T12:22:20;103400.77;;;9.24;100.00
49645;BME280;36494;50.730;-1.932;2023-02-04T12:24:45;103401.71;;;9.25;100.00
49645;BME280;36494;50.730;-1.932;2023-02-04T12:27:10;103404.51;;;9.23;100.00
49645;BME280;36494;50.730;-1.932;2023-02-04T12:29:36;103406.75;;;9.26;100.00
49645;BME280;36494;50.730;-1.932;2023-02-04T12:32:01;103406.71;;;9.29;100.00
49645;BME280;36494;50.730;-1.932;2023-02-04T12:34:26;103407.09;;;9.30;100.00